Time,TemperatureF,DewpointF,PressureIn,WindDirection,WindDirectionDegrees,WindSpeedMPH,WindSpeedGustMPH,Humidity,HourlyPrecipIn,Conditions,Clouds,dailyrainin,SoftwareType,DateUTC
2013-06-24 00:12:00,81.1,66.0,29.83,SSE,165,5.0,12.0,61,0.00,,,0.00,weatherlink.com 1.10,2013-06-24 05:12:00,
2013-06-24 00:27:00,80.6,67.0,29.84,SSE,154,6.0,15.0,63,0.00,,,0.00,weatherlink.com 1.10,2013-06-24 05:27:00,
2013-06-24 01:12:00,79.2,67.0,29.84,SSE,152,9.0,13.0,66,0.00,,,0.00,weatherlink.com 1.10,2013-06-24 06:12:00,
2013-06-24 01:27:00,78.7,67.0,29.84,South,186,3.0,12.0,67,0.00,,,0.00,weatherlink.com 1.10,2013-06-24 06:27:00,
2013-06-24 01:42:00,78.4,67.0,29.84,SSE,155,8.0,16.0,68,0.00,,,0.00,weatherlink.com 1.10,2013-06-24 06:42:00,
2013-06-24 01:57:00,77.8,67.0,29.84,South,184,5.0,11.0,70,0.00,,,0.00,weatherlink.com 1.10,2013-06-24 06:57:00,
2013-06-24 02:12:00,77.5,67.0,29.84,SSE,164,7.0,15.0,71,0.00,,,0.00,weatherlink.com 1.10,2013-06-24 07:12:00,
2013-06-24 02:27:00,77.0,67.0,29.84,South,186,8.0,13.0,72,0.00,,,0.00,weatherlink.com 1.10,2013-06-24 07:27:00,
2013-06-24 02:42:00,76.6,67.0,29.84,South,175,4.0,15.0,73,0.00,,,0.00,weatherlink.com 1.10,2013-06-24 07:42:00,
2013-06-24 02:57:00,76.2,68.0,29.84,South,176,8.0,14.0,75,0.00,,,0.00,weatherlink.com 1.10,2013-06-24 07:57:00,
2013-06-24 03:12:00,75.8,68.0,29.83,South,174,5.0,13.0,76,0.00,,,0.00,weatherlink.com 1.10,2013-06-24 08:12:00,
2013-06-24 03:27:00,75.6,68.0,29.83,South,180,8.0,14.0,76,0.00,,,0.00,weatherlink.com 1.10,2013-06-24 08:27:00,
2013-06-24 03:42:00,75.4,68.0,29.84,South,177,7.0,12.0,77,0.00,,,0.00,weatherlink.com 1.10,2013-06-24 08:42:00,
2013-06-24 03:57:00,75.2,68.0,29.84,SSE,163,6.0,13.0,77,0.00,,,0.00,weatherlink.com 1.10,2013-06-24 08:57:00,
2013-06-24 04:12:00,74.9,68.0,29.85,SSE,152,5.0,9.0,78,0.00,,,0.00,weatherlink.com 1.10,2013-06-24 09:12:00,
2013-06-24 04:27:00,74.7,68.0,29.85,South,179,7.0,11.0,79,0.00,,,0.00,weatherlink.com 1.10,2013-06-24 09:27:00,
2013-06-24 04:57:00,74.3,68.0,29.85,SSE,164,8.0,11.0,80,0.00,,,0.00,weatherlink.com 1.10,2013-06-24 09:57:00,
2013-06-24 05:12:00,74.2,68.0,29.85,SSE,160,6.0,13.0,80,0.00,,,0.00,weatherlink.com 1.10,2013-06-24 10:12:00,
2013-06-24 05:27:00,74.1,68.0,29.85,SSE,167,2.0,9.0,80,0.00,,,0.00,weatherlink.com 1.10,2013-06-24 10:27:00,
2013-06-24 05:57:00,73.7,68.0,29.85,SSE,165,6.0,10.0,81,0.00,,,0.00,weatherlink.com 1.10,2013-06-24 10:57:00,
2013-06-24 06:42:00,73.7,68.0,29.86,SSE,153,3.0,9.0,82,0.00,,,0.00,weatherlink.com 1.10,2013-06-24 11:42:00,
2013-06-24 06:57:00,74.1,68.0,29.87,SSW,193,3.0,13.0,81,0.00,,,0.00,weatherlink.com 1.10,2013-06-24 11:57:00,
2013-06-24 07:12:00,74.6,68.0,29.88,South,180,4.0,12.0,80,0.00,,,0.00,weatherlink.com 1.10,2013-06-24 12:12:00,
2013-06-24 07:27:00,75.2,68.0,29.88,South,190,8.0,14.0,79,0.00,,,0.00,weatherlink.com 1.10,2013-06-24 12:27:00,
2013-06-24 07:42:00,75.7,68.0,29.88,South,180,5.0,17.0,78,0.00,,,0.00,weatherlink.com 1.10,2013-06-24 12:42:00,
2013-06-24 07:57:00,76.4,69.0,29.88,South,173,6.0,10.0,77,0.00,,,0.00,weatherlink.com 1.10,2013-06-24 12:57:00,
2013-06-24 08:13:00,76.9,69.0,29.89,SSE,165,5.0,10.0,76,0.00,,,0.00,weatherlink.com 1.10,2013-06-24 13:13:00,
2013-06-24 08:27:00,77.4,69.0,29.89,SSE,168,5.0,12.0,75,0.00,,,0.00,weatherlink.com 1.10,2013-06-24 13:27:00,
2013-06-24 08:58:00,78.0,69.0,29.89,South,178,4.0,13.0,74,0.00,,,0.00,weatherlink.com 1.10,2013-06-24 13:58:00,
2013-06-24 09:13:00,78.4,69.0,29.90,SSE,168,6.0,13.0,73,0.00,,,0.00,weatherlink.com 1.10,2013-06-24 14:13:00,
2013-06-24 09:28:00,78.6,69.0,29.90,SSW,195,6.0,10.0,72,0.00,,,0.00,weatherlink.com 1.10,2013-06-24 14:28:00,
2013-06-24 09:43:00,79.7,68.0,29.90,South,171,6.0,15.0,68,0.00,,,0.00,weatherlink.com 1.10,2013-06-24 14:43:00,
2013-06-24 09:58:00,80.7,69.0,29.90,South,174,6.0,12.0,67,0.00,,,0.00,weatherlink.com 1.10,2013-06-24 14:58:00,
2013-06-24 10:13:00,81.5,69.0,29.90,South,186,6.0,15.0,66,0.00,,,0.00,weatherlink.com 1.10,2013-06-24 15:13:00,
2013-06-24 10:28:00,82.9,69.0,29.89,SSE,161,7.0,12.0,63,0.00,,,0.00,weatherlink.com 1.10,2013-06-24 15:28:00,
2013-06-24 10:43:00,83.2,69.0,29.89,SSW,197,7.0,15.0,63,0.00,,,0.00,weatherlink.com 1.10,2013-06-24 15:43:00,
2013-06-24 10:58:00,84.1,69.0,29.89,South,178,7.0,13.0,60,0.00,,,0.00,weatherlink.com 1.10,2013-06-24 15:58:00,
2013-06-24 11:13:00,84.8,69.0,29.89,SSE,167,15.0,15.0,59,0.00,,,0.00,weatherlink.com 1.10,2013-06-24 16:13:00,
2013-06-24 11:28:00,86.3,69.0,29.89,SSE,163,8.0,17.0,56,0.00,,,0.00,weatherlink.com 1.10,2013-06-24 16:28:00,
2013-06-24 11:43:00,86.8,69.0,29.89,SSE,155,8.0,17.0,55,0.00,,,0.00,weatherlink.com 1.10,2013-06-24 16:43:00,
2013-06-24 11:58:00,88.2,68.0,29.89,South,173,12.0,18.0,52,0.00,,,0.00,weatherlink.com 1.10,2013-06-24 16:58:00,
2013-06-24 12:28:00,89.4,68.0,29.88,South,184,5.0,15.0,50,0.00,,,0.00,weatherlink.com 1.10,2013-06-24 17:28:00,
2013-06-24 12:43:00,89.2,68.0,29.87,SE,134,8.0,18.0,49,0.00,,,0.00,weatherlink.com 1.10,2013-06-24 17:43:00,
2013-06-24 12:58:00,89.6,68.0,29.87,South,189,6.0,15.0,49,0.00,,,0.00,weatherlink.com 1.10,2013-06-24 17:58:00,
2013-06-24 13:13:00,90.9,69.0,29.86,South,180,5.0,15.0,48,0.00,,,0.00,weatherlink.com 1.10,2013-06-24 18:13:00,
2013-06-24 13:28:00,90.9,69.0,29.86,South,171,9.0,12.0,48,0.00,,,0.00,weatherlink.com 1.10,2013-06-24 18:28:00,
2013-06-24 13:43:00,91.0,69.0,29.85,South,182,8.0,17.0,48,0.00,,,0.00,weatherlink.com 1.10,2013-06-24 18:43:00,
2013-06-24 13:58:00,91.7,68.0,29.84,South,175,12.0,17.0,46,0.00,,,0.00,weatherlink.com 1.10,2013-06-24 18:58:00,
2013-06-24 14:13:00,92.7,68.0,29.84,SW,218,7.0,21.0,44,0.00,,,0.00,weatherlink.com 1.10,2013-06-24 19:13:00,
2013-06-24 14:28:00,92.0,68.0,29.83,SSE,150,11.0,17.0,45,0.00,,,0.00,weatherlink.com 1.10,2013-06-24 19:28:00,
2013-06-24 14:43:00,92.0,68.0,29.83,South,189,15.0,20.0,45,0.00,,,0.00,weatherlink.com 1.10,2013-06-24 19:43:00,
2013-06-24 14:59:00,93.2,68.0,29.83,SW,232,10.0,18.0,43,0.00,,,0.00,weatherlink.com 1.10,2013-06-24 19:59:00,
2013-06-24 15:14:00,93.8,67.0,29.82,South,171,4.0,17.0,42,0.00,,,0.00,weatherlink.com 1.10,2013-06-24 20:14:00,
2013-06-24 15:29:00,94.9,67.0,29.81,SSE,148,8.0,17.0,40,0.00,,,0.00,weatherlink.com 1.10,2013-06-24 20:29:00,
2013-06-24 15:44:00,94.2,66.0,29.81,South,173,10.0,19.0,40,0.00,,,0.00,weatherlink.com 1.10,2013-06-24 20:44:00,
2013-06-24 15:59:00,93.5,66.0,29.80,SSE,168,13.0,17.0,41,0.00,,,0.00,weatherlink.com 1.10,2013-06-24 20:59:00,
2013-06-24 16:29:00,94.5,67.0,29.80,SSW,195,15.0,20.0,40,0.00,,,0.00,weatherlink.com 1.10,2013-06-24 21:29:00,
2013-06-24 16:44:00,94.9,66.0,29.80,South,175,11.0,21.0,39,0.00,,,0.00,weatherlink.com 1.10,2013-06-24 21:44:00,
2013-06-24 16:59:00,94.8,66.0,29.79,South,172,6.0,23.0,39,0.00,,,0.00,weatherlink.com 1.10,2013-06-24 21:59:00,
2013-06-24 17:14:00,95.8,66.0,29.78,SSE,163,13.0,18.0,37,0.00,,,0.00,weatherlink.com 1.10,2013-06-24 22:14:00,
2013-06-24 17:29:00,94.9,66.0,29.77,South,176,6.0,19.0,38,0.00,,,0.00,weatherlink.com 1.10,2013-06-24 22:29:00,
2013-06-24 17:44:00,95.3,66.0,29.77,SSE,166,10.0,15.0,38,0.00,,,0.00,weatherlink.com 1.10,2013-06-24 22:44:00,
2013-06-24 17:59:00,93.7,64.0,29.76,South,171,13.0,17.0,38,0.00,,,0.00,weatherlink.com 1.10,2013-06-24 22:59:00,
2013-06-24 18:14:00,94.7,65.0,29.76,SSW,207,9.0,18.0,37,0.00,,,0.00,weatherlink.com 1.10,2013-06-24 23:14:00,
2013-06-24 18:44:00,92.8,64.0,29.76,SSE,165,11.0,18.0,39,0.00,,,0.00,weatherlink.com 1.10,2013-06-24 23:44:00,
2013-06-24 19:14:00,92.1,65.0,29.76,SSW,196,11.0,16.0,40,0.00,,,0.00,weatherlink.com 1.10,2013-06-25 00:14:00,
2013-06-24 19:29:00,91.9,66.0,29.77,SSE,167,11.0,15.0,42,0.00,,,0.00,weatherlink.com 1.10,2013-06-25 00:29:00,
2013-06-24 19:44:00,91.4,67.0,29.76,South,173,5.0,14.0,44,0.00,,,0.00,weatherlink.com 1.10,2013-06-25 00:44:00,
2013-06-24 19:59:00,91.0,67.0,29.76,South,180,8.0,12.0,45,0.00,,,0.00,weatherlink.com 1.10,2013-06-25 00:59:00,
2013-06-24 20:29:00,89.5,67.0,29.77,SE,136,7.0,14.0,48,0.00,,,0.00,weatherlink.com 1.10,2013-06-25 01:29:00,
2013-06-24 20:44:00,88.8,67.0,29.77,SSE,164,6.0,13.0,49,0.00,,,0.00,weatherlink.com 1.10,2013-06-25 01:44:00,
2013-06-24 20:59:00,88.1,67.0,29.77,SE,142,12.0,14.0,50,0.00,,,0.00,weatherlink.com 1.10,2013-06-25 01:59:00,
2013-06-24 21:14:00,87.5,67.0,29.77,SSE,168,7.0,16.0,51,0.00,,,0.00,weatherlink.com 1.10,2013-06-25 02:14:00,
2013-06-24 21:59:00,86.1,65.0,29.79,SSE,163,10.0,13.0,50,0.00,,,0.00,weatherlink.com 1.10,2013-06-25 02:59:00,
2013-06-24 22:14:00,85.6,65.0,29.79,SSE,153,6.0,14.0,51,0.00,,,0.00,weatherlink.com 1.10,2013-06-25 03:14:00,
2013-06-24 22:29:00,85.0,66.0,29.79,SSE,161,7.0,14.0,54,0.00,,,0.00,weatherlink.com 1.10,2013-06-25 03:29:00,
2013-06-24 22:59:00,83.9,66.0,29.81,South,186,4.0,16.0,56,0.00,,,0.00,weatherlink.com 1.10,2013-06-25 03:59:00,
2013-06-24 23:14:00,83.4,67.0,29.82,South,179,11.0,16.0,58,0.00,,,0.00,weatherlink.com 1.10,2013-06-25 04:14:00,
2013-06-24 23:29:00,82.9,67.0,29.82,South,187,10.0,17.0,59,0.00,,,0.00,weatherlink.com 1.10,2013-06-25 04:29:00,
2013-06-24 23:44:00,82.4,68.0,29.83,SSE,163,7.0,16.0,61,0.00,,,0.00,weatherlink.com 1.10,2013-06-25 04:44:00,
2013-06-24 23:59:00,81.9,68.0,29.83,SE,141,11.0,16.0,63,0.00,,,0.00,weatherlink.com 1.10,2013-06-25 04:59:00,